sensor_id;sensor_type;location;lat;lon;timestamp;P1;durP1;ratioP1;P2;durP2;ratioP2
41466;SDS011;27205;53.690;19.948;2023-02-02T00:03:19;6.00;;;5.50;;
41466;SDS011;27205;53.690;19.948;2023-02-02T00:08:23;7.50;;;6.80;;
41466;SDS011;27205;53.690;19.948;2023-02-02T00:13:27;6.10;;;5.70;;
41466;SDS011;27205;53.690;19.948;2023-02-02T00:18:31;5.50;;;5.10;;
41466;SDS011;27205;53.690;19.948;2023-02-02T00:23:35;5.30;;;4.90;;
41466;SDS011;27205;53.690;19.948;2023-02-02T00:28:38;4.40;;;4.10;;
41466;SDS011;27205;53.690;19.948;2023-02-02T00:33:45;5.10;;;4.60;;
41466;SDS011;27205;53.690;19.948;2023-02-02T00:38:50;5.10;;;4.70;;
41466;SDS011;27205;53.690;19.948;2023-02-02T00:43:54;5.80;;;5.30;;
41466;SDS011;27205;53.690;19.948;2023-02-02T00:49:17;5.30;;;4.90;;
41466;SDS011;27205;53.690;19.948;2023-02-02T00:54:20;3.60;;;3.40;;
41466;SDS011;27205;53.690;19.948;2023-02-02T00:59:24;3.20;;;3.00;;
41466;SDS011;27205;53.690;19.948;2023-02-02T01:04:27;2.20;;;2.10;;
41466;SDS011;27205;53.690;19.948;2023-02-02T01:09:31;2.50;;;2.40;;
41466;SDS011;27205;53.690;19.948;2023-02-02T01:14:34;1.80;;;1.70;;
41466;SDS011;27205;53.690;19.948;2023-02-02T01:19:38;2.10;;;2.00;;
41466;SDS011;27205;53.690;19.948;2023-02-02T01:29:46;2.10;;;2.00;;
41466;SDS011;27205;53.690;19.948;2023-02-02T01:34:49;2.10;;;2.00;;
41466;SDS011;27205;53.690;19.948;2023-02-02T01:39:53;3.30;;;3.10;;
41466;SDS011;27205;53.690;19.948;2023-02-02T01:50:03;4.30;;;3.90;;
41466;SDS011;27205;53.690;19.948;2023-02-02T01:55:09;4.50;;;4.10;;
41466;SDS011;27205;53.690;19.948;2023-02-02T02:00:15;6.30;;;5.50;;
41466;SDS011;27205;53.690;19.948;2023-02-02T02:05:28;5.40;;;4.90;;
41466;SDS011;27205;53.690;19.948;2023-02-02T02:10:34;6.20;;;5.60;;
41466;SDS011;27205;53.690;19.948;2023-02-02T02:15:58;7.40;;;6.50;;
41466;SDS011;27205;53.690;19.948;2023-02-02T02:43:19;13.40;;;10.50;;
41466;SDS011;27205;53.690;19.948;2023-02-02T02:48:27;13.60;;;11.60;;
41466;SDS011;27205;53.690;19.948;2023-02-02T03:09:11;16.40;;;12.60;;
41466;SDS011;27205;53.690;19.948;2023-02-02T03:14:20;10.60;;;8.50;;
41466;SDS011;27205;53.690;19.948;2023-02-02T03:19:24;10.90;;;7.30;;
41466;SDS011;27205;53.690;19.948;2023-02-02T03:24:28;9.10;;;7.20;;
41466;SDS011;27205;53.690;19.948;2023-02-02T03:29:31;11.80;;;7.80;;
41466;SDS011;27205;53.690;19.948;2023-02-02T03:34:35;7.00;;;4.50;;
41466;SDS011;27205;53.690;19.948;2023-02-02T03:39:39;10.40;;;7.60;;
41466;SDS011;27205;53.690;19.948;2023-02-02T03:44:42;19.70;;;14.40;;
41466;SDS011;27205;53.690;19.948;2023-02-02T03:49:46;25.20;;;19.10;;
41466;SDS011;27205;53.690;19.948;2023-02-02T03:54:49;16.90;;;11.40;;
41466;SDS011;27205;53.690;19.948;2023-02-02T03:59:53;15.50;;;12.10;;
41466;SDS011;27205;53.690;19.948;2023-02-02T04:04:57;11.80;;;7.10;;
41466;SDS011;27205;53.690;19.948;2023-02-02T04:10:00;10.70;;;5.60;;
41466;SDS011;27205;53.690;19.948;2023-02-02T04:15:05;10.70;;;6.90;;
41466;SDS011;27205;53.690;19.948;2023-02-02T04:20:10;12.90;;;7.90;;
41466;SDS011;27205;53.690;19.948;2023-02-02T04:25:14;13.50;;;9.80;;
41466;SDS011;27205;53.690;19.948;2023-02-02T04:30:18;16.00;;;10.20;;
41466;SDS011;27205;53.690;19.948;2023-02-02T04:35:22;11.50;;;8.10;;
41466;SDS011;27205;53.690;19.948;2023-02-02T04:40:26;11.60;;;8.10;;
41466;SDS011;27205;53.690;19.948;2023-02-02T04:45:30;12.10;;;7.50;;
41466;SDS011;27205;53.690;19.948;2023-02-02T04:50:34;12.20;;;6.90;;
41466;SDS011;27205;53.690;19.948;2023-02-02T04:55:37;8.60;;;5.60;;
41466;SDS011;27205;53.690;19.948;2023-02-02T05:00:41;9.50;;;5.00;;
41466;SDS011;27205;53.690;19.948;2023-02-02T05:05:45;6.50;;;4.00;;
41466;SDS011;27205;53.690;19.948;2023-02-02T05:10:49;9.90;;;6.50;;
41466;SDS011;27205;53.690;19.948;2023-02-02T05:15:53;11.80;;;7.70;;
41466;SDS011;27205;53.690;19.948;2023-02-02T05:21:00;9.20;;;5.90;;
41466;SDS011;27205;53.690;19.948;2023-02-02T05:26:04;10.70;;;6.60;;
41466;SDS011;27205;53.690;19.948;2023-02-02T05:31:08;9.80;;;6.00;;
41466;SDS011;27205;53.690;19.948;2023-02-02T05:36:12;10.10;;;6.40;;
41466;SDS011;27205;53.690;19.948;2023-02-02T05:41:15;13.30;;;9.50;;
41466;SDS011;27205;53.690;19.948;2023-02-02T05:46:19;19.80;;;14.20;;
41466;SDS011;27205;53.690;19.948;2023-02-02T05:51:24;12.30;;;8.50;;
41466;SDS011;27205;53.690;19.948;2023-02-02T05:56:32;8.80;;;5.50;;
41466;SDS011;27205;53.690;19.948;2023-02-02T06:01:35;8.60;;;4.80;;
41466;SDS011;27205;53.690;19.948;2023-02-02T06:06:39;11.70;;;7.30;;
41466;SDS011;27205;53.690;19.948;2023-02-02T06:16:47;9.60;;;6.70;;
41466;SDS011;27205;53.690;19.948;2023-02-02T06:21:50;5.70;;;4.50;;
41466;SDS011;27205;53.690;19.948;2023-02-02T06:26:54;9.60;;;6.20;;
41466;SDS011;27205;53.690;19.948;2023-02-02T06:31:58;6.00;;;5.00;;
41466;SDS011;27205;53.690;19.948;2023-02-02T06:37:01;7.30;;;5.50;;
41466;SDS011;27205;53.690;19.948;2023-02-02T06:42:05;7.40;;;5.10;;
41466;SDS011;27205;53.690;19.948;2023-02-02T06:47:23;6.90;;;5.20;;
41466;SDS011;27205;53.690;19.948;2023-02-02T06:52:28;8.60;;;5.40;;
41466;SDS011;27205;53.690;19.948;2023-02-02T06:57:32;7.30;;;5.40;;
41466;SDS011;27205;53.690;19.948;2023-02-02T07:02:36;8.60;;;6.30;;
41466;SDS011;27205;53.690;19.948;2023-02-02T07:07:39;11.60;;;10.30;;
41466;SDS011;27205;53.690;19.948;2023-02-02T07:12:43;17.90;;;14.90;;
41466;SDS011;27205;53.690;19.948;2023-02-02T07:17:47;12.20;;;10.60;;
41466;SDS011;27205;53.690;19.948;2023-02-02T07:22:51;8.10;;;7.30;;
41466;SDS011;27205;53.690;19.948;2023-02-02T07:27:54;6.60;;;5.90;;
41466;SDS011;27205;53.690;19.948;2023-02-02T07:32:58;9.90;;;8.90;;
41466;SDS011;27205;53.690;19.948;2023-02-02T07:38:02;12.80;;;10.80;;
41466;SDS011;27205;53.690;19.948;2023-02-02T07:43:06;11.00;;;9.70;;
41466;SDS011;27205;53.690;19.948;2023-02-02T07:48:10;17.10;;;15.30;;
41466;SDS011;27205;53.690;19.948;2023-02-02T07:53:13;11.00;;;9.90;;
41466;SDS011;27205;53.690;19.948;2023-02-02T07:58:17;12.10;;;10.80;;
41466;SDS011;27205;53.690;19.948;2023-02-02T08:03:21;20.40;;;17.40;;
41466;SDS011;27205;53.690;19.948;2023-02-02T08:08:24;13.40;;;12.10;;
41466;SDS011;27205;53.690;19.948;2023-02-02T08:18:32;5.60;;;4.40;;
41466;SDS011;27205;53.690;19.948;2023-02-02T08:23:38;4.60;;;4.10;;
41466;SDS011;27205;53.690;19.948;2023-02-02T08:28:43;3.70;;;3.40;;
41466;SDS011;27205;53.690;19.948;2023-02-02T08:33:49;3.40;;;3.10;;
41466;SDS011;27205;53.690;19.948;2023-02-02T08:38:59;5.50;;;3.40;;
41466;SDS011;27205;53.690;19.948;2023-02-02T08:44:06;3.20;;;2.90;;
41466;SDS011;27205;53.690;19.948;2023-02-02T08:49:13;2.30;;;2.10;;
41466;SDS011;27205;53.690;19.948;2023-02-02T08:54:17;2.80;;;2.60;;
41466;SDS011;27205;53.690;19.948;2023-02-02T08:59:21;2.80;;;1.90;;
41466;SDS011;27205;53.690;19.948;2023-02-02T09:04:25;1.60;;;1.50;;
41466;SDS011;27205;53.690;19.948;2023-02-02T09:09:28;2.20;;;2.00;;
41466;SDS011;27205;53.690;19.948;2023-02-02T09:14:32;1.70;;;1.40;;
41466;SDS011;27205;53.690;19.948;2023-02-02T09:19:35;1.40;;;1.20;;
41466;SDS011;27205;53.690;19.948;2023-02-02T09:24:39;1.40;;;1.30;;
41466;SDS011;27205;53.690;19.948;2023-02-02T09:29:42;4.00;;;3.70;;
41466;SDS011;27205;53.690;19.948;2023-02-02T09:34:46;1.90;;;1.80;;
41466;SDS011;27205;53.690;19.948;2023-02-02T09:39:49;2.60;;;2.10;;
41466;SDS011;27205;53.690;19.948;2023-02-02T09:55:36;1.20;;;1.10;;
41466;SDS011;27205;53.690;19.948;2023-02-02T10:00:51;0.90;;;0.90;;
41466;SDS011;27205;53.690;19.948;2023-02-02T10:11:41;2.10;;;1.80;;
41466;SDS011;27205;53.690;19.948;2023-02-02T10:16:54;2.10;;;2.00;;
41466;SDS011;27205;53.690;19.948;2023-02-02T10:27:27;2.60;;;2.40;;
41466;SDS011;27205;53.690;19.948;2023-02-02T10:38:01;2.10;;;1.30;;
41466;SDS011;27205;53.690;19.948;2023-02-02T10:48:50;1.20;;;1.10;;
41466;SDS011;27205;53.690;19.948;2023-02-02T10:54:36;1.80;;;1.60;;
41466;SDS011;27205;53.690;19.948;2023-02-02T11:05:04;1.20;;;1.10;;
41466;SDS011;27205;53.690;19.948;2023-02-02T11:10:27;1.30;;;1.20;;
41466;SDS011;27205;53.690;19.948;2023-02-02T11:15:31;1.00;;;0.90;;
41466;SDS011;27205;53.690;19.948;2023-02-02T11:20:34;1.90;;;1.60;;
41466;SDS011;27205;53.690;19.948;2023-02-02T11:25:41;1.30;;;1.20;;
41466;SDS011;27205;53.690;19.948;2023-02-02T11:30:46;1.00;;;0.90;;
41466;SDS011;27205;53.690;19.948;2023-02-02T11:35:55;1.20;;;1.10;;
41466;SDS011;27205;53.690;19.948;2023-02-02T11:41:06;0.70;;;0.70;;
41466;SDS011;27205;53.690;19.948;2023-02-02T11:46:22;1.10;;;1.00;;
41466;SDS011;27205;53.690;19.948;2023-02-02T11:51:31;0.80;;;0.60;;
41466;SDS011;27205;53.690;19.948;2023-02-02T11:56:35;0.30;;;0.30;;
41466;SDS011;27205;53.690;19.948;2023-02-02T12:01:40;0.50;;;0.50;;
41466;SDS011;27205;53.690;19.948;2023-02-02T12:06:45;0.40;;;0.30;;
41466;SDS011;27205;53.690;19.948;2023-02-02T12:34:06;0.90;;;0.90;;
41466;SDS011;27205;53.690;19.948;2023-02-02T13:11:54;2.00;;;1.50;;
41466;SDS011;27205;53.690;19.948;2023-02-02T13:17:12;1.10;;;0.80;;
41466;SDS011;27205;53.690;19.948;2023-02-02T13:22:28;0.30;;;0.30;;
41466;SDS011;27205;53.690;19.948;2023-02-02T13:27:36;0.60;;;0.30;;
41466;SDS011;27205;53.690;19.948;2023-02-02T13:32:42;0.50;;;0.50;;
41466;SDS011;27205;53.690;19.948;2023-02-02T13:38:00;1.90;;;1.80;;
41466;SDS011;27205;53.690;19.948;2023-02-02T13:43:21;0.50;;;0.50;;
41466;SDS011;27205;53.690;19.948;2023-02-02T13:54:05;0.90;;;0.80;;
41466;SDS011;27205;53.690;19.948;2023-02-02T14:04:59;1.10;;;0.70;;
41466;SDS011;27205;53.690;19.948;2023-02-02T14:10:06;6.20;;;5.80;;
41466;SDS011;27205;53.690;19.948;2023-02-02T14:15:37;1.80;;;1.70;;
41466;SDS011;27205;53.690;19.948;2023-02-02T14:20:44;5.90;;;5.50;;
41466;SDS011;27205;53.690;19.948;2023-02-02T14:26:02;2.60;;;2.40;;
41466;SDS011;27205;53.690;19.948;2023-02-02T14:31:29;1.90;;;1.80;;
41466;SDS011;27205;53.690;19.948;2023-02-02T14:36:40;1.30;;;1.20;;
41466;SDS011;27205;53.690;19.948;2023-02-02T14:42:07;1.90;;;1.80;;
41466;SDS011;27205;53.690;19.948;2023-02-02T14:47:55;2.20;;;2.00;;
41466;SDS011;27205;53.690;19.948;2023-02-02T14:58:22;1.70;;;1.60;;
41466;SDS011;27205;53.690;19.948;2023-02-02T15:03:33;4.40;;;4.00;;
41466;SDS011;27205;53.690;19.948;2023-02-02T15:08:39;7.10;;;6.60;;
41466;SDS011;27205;53.690;19.948;2023-02-02T15:13:42;1.70;;;1.60;;
41466;SDS011;27205;53.690;19.948;2023-02-02T15:18:54;3.20;;;3.00;;
41466;SDS011;27205;53.690;19.948;2023-02-02T15:24:14;1.70;;;1.60;;
41466;SDS011;27205;53.690;19.948;2023-02-02T15:29:32;0.80;;;0.80;;
41466;SDS011;27205;53.690;19.948;2023-02-02T15:34:50;1.20;;;1.10;;
41466;SDS011;27205;53.690;19.948;2023-02-02T15:39:57;2.10;;;1.90;;
41466;SDS011;27205;53.690;19.948;2023-02-02T15:45:04;2.70;;;2.50;;
41466;SDS011;27205;53.690;19.948;2023-02-02T15:50:16;1.60;;;1.50;;
41466;SDS011;27205;53.690;19.948;2023-02-02T15:55:23;0.90;;;0.90;;
41466;SDS011;27205;53.690;19.948;2023-02-02T16:00:34;2.50;;;2.10;;
41466;SDS011;27205;53.690;19.948;2023-02-02T16:05:43;7.30;;;6.70;;
41466;SDS011;27205;53.690;19.948;2023-02-02T16:16:36;7.50;;;6.80;;
41466;SDS011;27205;53.690;19.948;2023-02-02T16:26:57;1.50;;;1.40;;
41466;SDS011;27205;53.690;19.948;2023-02-02T16:32:03;5.20;;;4.80;;
41466;SDS011;27205;53.690;19.948;2023-02-02T16:42:38;1.60;;;1.50;;
41466;SDS011;27205;53.690;19.948;2023-02-02T16:47:42;2.70;;;2.50;;
41466;SDS011;27205;53.690;19.948;2023-02-02T16:57:55;2.20;;;1.90;;
41466;SDS011;27205;53.690;19.948;2023-02-02T17:03:05;4.60;;;4.30;;
41466;SDS011;27205;53.690;19.948;2023-02-02T17:08:11;1.80;;;1.70;;
41466;SDS011;27205;53.690;19.948;2023-02-02T17:18:34;1.40;;;1.30;;
41466;SDS011;27205;53.690;19.948;2023-02-02T17:23:38;1.10;;;1.00;;
41466;SDS011;27205;53.690;19.948;2023-02-02T17:28:42;1.40;;;1.30;;
41466;SDS011;27205;53.690;19.948;2023-02-02T17:33:46;0.80;;;0.80;;
41466;SDS011;27205;53.690;19.948;2023-02-02T17:38:50;0.90;;;0.90;;
41466;SDS011;27205;53.690;19.948;2023-02-02T17:43:53;1.00;;;0.90;;
41466;SDS011;27205;53.690;19.948;2023-02-02T17:48:57;2.60;;;2.00;;
41466;SDS011;27205;53.690;19.948;2023-02-02T17:54:00;1.60;;;1.50;;
41466;SDS011;27205;53.690;19.948;2023-02-02T17:59:04;1.50;;;1.40;;
41466;SDS011;27205;53.690;19.948;2023-02-02T18:04:09;3.00;;;2.50;;
41466;SDS011;27205;53.690;19.948;2023-02-02T18:09:15;2.20;;;2.10;;
41466;SDS011;27205;53.690;19.948;2023-02-02T18:14:19;2.00;;;1.90;;
41466;SDS011;27205;53.690;19.948;2023-02-02T18:19:22;2.30;;;2.10;;
41466;SDS011;27205;53.690;19.948;2023-02-02T18:24:26;1.90;;;1.70;;
41466;SDS011;27205;53.690;19.948;2023-02-02T18:29:30;2.80;;;2.60;;
41466;SDS011;27205;53.690;19.948;2023-02-02T18:34:34;3.70;;;3.40;;
41466;SDS011;27205;53.690;19.948;2023-02-02T18:44:41;3.10;;;2.80;;
41466;SDS011;27205;53.690;19.948;2023-02-02T18:49:45;3.40;;;3.20;;
41466;SDS011;27205;53.690;19.948;2023-02-02T18:54:49;1.40;;;1.30;;
41466;SDS011;27205;53.690;19.948;2023-02-02T18:59:52;4.10;;;3.80;;
41466;SDS011;27205;53.690;19.948;2023-02-02T19:04:56;2.30;;;2.20;;
41466;SDS011;27205;53.690;19.948;2023-02-02T19:10:18;0.80;;;0.50;;
41466;SDS011;27205;53.690;19.948;2023-02-02T19:15:22;0.50;;;0.50;;
41466;SDS011;27205;53.690;19.948;2023-02-02T19:20:29;1.30;;;1.20;;
41466;SDS011;27205;53.690;19.948;2023-02-02T19:25:32;1.70;;;1.60;;
41466;SDS011;27205;53.690;19.948;2023-02-02T19:30:36;1.30;;;1.20;;
41466;SDS011;27205;53.690;19.948;2023-02-02T19:35:40;1.60;;;1.50;;
41466;SDS011;27205;53.690;19.948;2023-02-02T19:40:48;1.80;;;1.60;;
41466;SDS011;27205;53.690;19.948;2023-02-02T19:45:52;1.90;;;1.50;;
41466;SDS011;27205;53.690;19.948;2023-02-02T19:50:57;1.60;;;1.50;;
41466;SDS011;27205;53.690;19.948;2023-02-02T19:56:06;0.80;;;0.80;;
41466;SDS011;27205;53.690;19.948;2023-02-02T20:01:26;1.20;;;1.20;;
41466;SDS011;27205;53.690;19.948;2023-02-02T20:06:36;1.90;;;1.80;;
41466;SDS011;27205;53.690;19.948;2023-02-02T20:11:59;5.80;;;5.30;;
41466;SDS011;27205;53.690;19.948;2023-02-02T20:17:05;2.40;;;2.20;;
41466;SDS011;27205;53.690;19.948;2023-02-02T20:22:26;1.50;;;1.40;;
41466;SDS011;27205;53.690;19.948;2023-02-02T20:27:31;1.10;;;1.10;;
41466;SDS011;27205;53.690;19.948;2023-02-02T20:32:37;2.60;;;2.40;;
41466;SDS011;27205;53.690;19.948;2023-02-02T20:37:43;1.70;;;1.60;;
41466;SDS011;27205;53.690;19.948;2023-02-02T20:42:47;1.90;;;1.80;;
41466;SDS011;27205;53.690;19.948;2023-02-02T20:47:51;2.50;;;2.20;;
41466;SDS011;27205;53.690;19.948;2023-02-02T20:52:56;2.40;;;2.30;;
41466;SDS011;27205;53.690;19.948;2023-02-02T20:58:02;4.10;;;3.70;;
41466;SDS011;27205;53.690;19.948;2023-02-02T21:03:06;2.60;;;2.40;;
41466;SDS011;27205;53.690;19.948;2023-02-02T21:08:09;2.10;;;1.90;;
41466;SDS011;27205;53.690;19.948;2023-02-02T21:13:13;2.10;;;1.90;;
41466;SDS011;27205;53.690;19.948;2023-02-02T21:18:17;2.50;;;1.80;;
41466;SDS011;27205;53.690;19.948;2023-02-02T21:23:21;2.00;;;1.90;;
41466;SDS011;27205;53.690;19.948;2023-02-02T21:28:25;2.00;;;1.90;;
41466;SDS011;27205;53.690;19.948;2023-02-02T21:33:28;2.20;;;1.60;;
41466;SDS011;27205;53.690;19.948;2023-02-02T21:38:31;2.00;;;1.90;;
41466;SDS011;27205;53.690;19.948;2023-02-02T21:43:35;2.70;;;2.50;;
41466;SDS011;27205;53.690;19.948;2023-02-02T21:48:39;2.40;;;2.20;;
41466;SDS011;27205;53.690;19.948;2023-02-02T21:53:44;2.40;;;2.20;;
41466;SDS011;27205;53.690;19.948;2023-02-02T21:58:47;5.80;;;5.30;;
41466;SDS011;27205;53.690;19.948;2023-02-02T22:03:51;6.70;;;6.10;;
41466;SDS011;27205;53.690;19.948;2023-02-02T22:08:58;6.20;;;5.70;;
41466;SDS011;27205;53.690;19.948;2023-02-02T22:19:31;2.50;;;2.30;;
41466;SDS011;27205;53.690;19.948;2023-02-02T22:24:36;2.00;;;1.80;;
41466;SDS011;27205;53.690;19.948;2023-02-02T22:29:40;2.40;;;2.20;;
41466;SDS011;27205;53.690;19.948;2023-02-02T22:34:43;2.30;;;2.10;;
41466;SDS011;27205;53.690;19.948;2023-02-02T22:39:47;2.00;;;1.80;;
41466;SDS011;27205;53.690;19.948;2023-02-02T22:44:50;2.10;;;1.80;;
41466;SDS011;27205;53.690;19.948;2023-02-02T22:49:54;1.40;;;1.30;;
41466;SDS011;27205;53.690;19.948;2023-02-02T22:54:57;1.00;;;1.00;;
41466;SDS011;27205;53.690;19.948;2023-02-02T23:00:05;1.30;;;1.20;;
41466;SDS011;27205;53.690;19.948;2023-02-02T23:05:14;1.80;;;1.70;;
41466;SDS011;27205;53.690;19.948;2023-02-02T23:10:20;1.30;;;1.20;;
41466;SDS011;27205;53.690;19.948;2023-02-02T23:15:26;2.20;;;2.00;;
41466;SDS011;27205;53.690;19.948;2023-02-02T23:20:32;1.90;;;1.80;;
41466;SDS011;27205;53.690;19.948;2023-02-02T23:25:35;1.50;;;1.40;;
41466;SDS011;27205;53.690;19.948;2023-02-02T23:30:39;2.20;;;2.00;;
41466;SDS011;27205;53.690;19.948;2023-02-02T23:35:43;1.80;;;1.70;;
41466;SDS011;27205;53.690;19.948;2023-02-02T23:40:46;2.60;;;2.40;;
41466;SDS011;27205;53.690;19.948;2023-02-02T23:45:50;2.20;;;2.10;;
41466;SDS011;27205;53.690;19.948;2023-02-02T23:50:53;3.70;;;3.50;;
41466;SDS011;27205;53.690;19.948;2023-02-02T23:55:57;2.80;;;2.60;;
